»·PEaware :: N162PT KSBA-KBUR

N162PT :: KSBA-KBUR

FLIGHT INFORMATION

Flight Status: Arrived
Operator: Privately registered:
United States
More flights under this callsign
Pilot: Anonymous 16342 (16342)
Aircraft: CESSNA 172 SKYHAWK
(C172)
More flights by this aircraft type
Origin: KSBA Santa Barbara Mun
United States
Destination: KBUR Bob Hope-Burbank
United States
More flights between these airports :: More routes between these airports
Route:
File this flight plan on PilotEdge
Remarks: Cat 08
Altitude:
(Current/Filed)
7,500ft
Speed:
(Current/Filed)
110kts
Departed: 06-Jun-18 09:07 AM
Arrived: 06-Jun-18 09:54 AM
Distance/Time
Traveled:
75nm/0:46
Distance/Time
To Go:
Arrived

Flight Plot

Page will automatically refresh every two minutes.


Map Options




Map Legend


Flown Route
Filed Route
Departure Airport
Arrival Airport
Navaid (VOR, NDB)
Fix

Horizontal Profiles

Position Reports

Time Latitude Longitude Heading Altitude Ground
Speed
06-Jun-18 08:31 34.422664 -119.835594 340 14ft 0kts
06-Jun-18 08:32 34.422665 -119.835594 340 14ft 0kts
06-Jun-18 08:33 34.422665 -119.835594 340 14ft 0kts
06-Jun-18 08:34 34.422665 -119.835594 340 14ft 0kts
06-Jun-18 08:35 34.422665 -119.835594 340 14ft 0kts
06-Jun-18 08:36 34.422664 -119.835594 340 14ft 0kts
06-Jun-18 08:37 34.422664 -119.835594 340 14ft 0kts
06-Jun-18 08:38 34.422664 -119.835594 340 14ft 0kts
06-Jun-18 08:39 34.422664 -119.835594 340 14ft 0kts
06-Jun-18 08:40 34.422664 -119.835594 340 14ft 0kts
06-Jun-18 08:41 34.422664 -119.835594 340 14ft 0kts
06-Jun-18 08:42 34.422664 -119.835594 340 14ft 0kts
06-Jun-18 08:43 34.422664 -119.835594 340 14ft 0kts
06-Jun-18 08:44 34.422664 -119.835594 340 14ft 0kts
06-Jun-18 08:45 34.422664 -119.835594 340 14ft 0kts
06-Jun-18 08:46 34.422664 -119.835594 340 14ft 0kts
06-Jun-18 08:47 34.422664 -119.835594 340 14ft 0kts
06-Jun-18 08:48 34.422664 -119.835594 340 14ft 0kts
06-Jun-18 08:49 34.422664 -119.835594 340 14ft 0kts
06-Jun-18 08:50 34.422664 -119.835594 340 14ft 0kts
06-Jun-18 08:51 34.422664 -119.835594 340 14ft 0kts
06-Jun-18 08:52 34.422664 -119.835594 340 14ft 0kts
06-Jun-18 08:53 34.422664 -119.835594 340 14ft 0kts
06-Jun-18 08:54 34.422664 -119.835594 340 14ft 0kts
06-Jun-18 08:55 34.422664 -119.835594 340 14ft 0kts
06-Jun-18 08:56 34.422664 -119.835594 340 14ft 0kts
06-Jun-18 08:57 34.422664 -119.835594 340 14ft 0kts
06-Jun-18 08:58 34.422664 -119.835594 340 14ft 0kts
06-Jun-18 08:59 34.422664 -119.835594 340 14ft 0kts
06-Jun-18 09:00 34.422664 -119.835594 340 14ft 0kts
06-Jun-18 09:01 34.422664 -119.835594 340 14ft 0kts
06-Jun-18 09:02 34.422664 -119.835594 340 14ft 0kts
06-Jun-18 09:03 34.423400 -119.837391 354 14ft 14kts
06-Jun-18 09:04 34.428762 -119.838981 342 14ft 16kts
06-Jun-18 09:05 34.430673 -119.839866 243 14ft 0kts
06-Jun-18 09:06 34.430612 -119.840008 240 14ft 10kts
06-Jun-18 09:07 34.415599 -119.835537 163 388ft 78kts
06-Jun-18 09:08 34.392351 -119.827643 163 1135ft 91kts
06-Jun-18 09:09 34.365708 -119.818686 164 1500ft 113kts
06-Jun-18 09:10 34.335676 -119.808705 164 1499ft 109kts
06-Jun-18 09:11 34.307086 -119.799191 164 1499ft 103kts
06-Jun-18 09:12 34.295886 -119.773053 94 2027ft 88kts
06-Jun-18 09:13 34.291228 -119.744295 100 2732ft 88kts
06-Jun-18 09:14 34.286241 -119.715051 100 3395ft 89kts
06-Jun-18 09:15 34.284314 -119.685425 91 4013ft 90kts
06-Jun-18 09:16 34.282776 -119.655074 93 4604ft 90kts
06-Jun-18 09:17 34.281123 -119.625401 93 5220ft 86kts
06-Jun-18 09:18 34.279464 -119.596286 93 5792ft 87kts
06-Jun-18 09:19 34.277758 -119.567090 93 6324ft 87kts
06-Jun-18 09:20 34.276017 -119.537585 93 6819ft 88kts
06-Jun-18 09:21 34.274251 -119.507848 93 7284ft 89kts
06-Jun-18 09:22 34.272347 -119.476243 93 7501ft 107kts
06-Jun-18 09:23 34.270028 -119.439052 93 7499ft 111kts
06-Jun-18 09:24 34.267807 -119.402559 93 7499ft 111kts
06-Jun-18 09:25 34.265792 -119.369186 93 7499ft 111kts
06-Jun-18 09:26 34.264446 -119.346892 94 7499ft 111kts
06-Jun-18 09:27 34.262739 -119.318667 94 7500ft 112kts
06-Jun-18 09:28 34.260456 -119.281123 94 7499ft 112kts
06-Jun-18 09:29 34.258167 -119.243648 94 7499ft 112kts
06-Jun-18 09:30 34.255847 -119.205848 94 7499ft 112kts
06-Jun-18 09:31 34.253531 -119.168304 94 7499ft 112kts
06-Jun-18 09:32 34.251195 -119.130624 94 7499ft 112kts
06-Jun-18 09:33 34.248858 -119.093170 94 7499ft 112kts
06-Jun-18 09:34 34.246495 -119.055510 94 7499ft 112kts
06-Jun-18 09:35 34.244130 -119.017877 94 7499ft 112kts
06-Jun-18 09:36 34.241835 -118.980172 94 7499ft 112kts
06-Jun-18 09:37 34.239555 -118.942591 94 7499ft 112kts
06-Jun-18 09:38 34.237273 -118.904913 93 7499ft 112kts
06-Jun-18 09:39 34.235008 -118.869035 94 7499ft 112kts
06-Jun-18 09:40 34.232557 -118.831424 94 7499ft 112kts
06-Jun-18 09:41 34.230079 -118.793674 94 7427ft 112kts
06-Jun-18 09:42 34.227707 -118.758364 94 6724ft 101kts
06-Jun-18 09:43 34.225482 -118.724876 94 6023ft 99kts
06-Jun-18 09:44 34.223282 -118.691718 94 5323ft 99kts
06-Jun-18 09:45 34.221102 -118.658700 94 4754ft 97kts
06-Jun-18 09:46 34.218942 -118.626167 94 4255ft 97kts
06-Jun-18 09:47 34.216795 -118.593973 94 3760ft 97kts
06-Jun-18 09:48 34.214616 -118.561432 94 3261ft 97kts
06-Jun-18 09:49 34.212454 -118.528719 94 3001ft 110kts
06-Jun-18 09:50 34.208865 -118.489937 101 2999ft 119kts
06-Jun-18 09:51 34.202309 -118.452991 101 2998ft 105kts
06-Jun-18 09:52 34.197717 -118.416290 93 2046ft 114kts
06-Jun-18 09:53 34.198139 -118.380646 91 1069ft 92kts
06-Jun-18 09:54 34.197763 -118.359203 86 738ft 10kts
06-Jun-18 09:55 34.196961 -118.357995 182 738ft 0kts
06-Jun-18 09:56 34.196961 -118.357995 182 738ft 0kts
06-Jun-18 09:57 34.196961 -118.357995 182 738ft 0kts
06-Jun-18 09:58 34.196890 -118.362075 273 738ft 26kts
06-Jun-18 09:59 34.195761 -118.362977 276 738ft 0kts
06-Jun-18 10:00 34.195761 -118.362977 276 738ft 0kts

Navigation Log

Ident Type
Flight plan parsing failed, navigation log unavailable